sensor_id;sensor_type;location;lat;lon;timestamp;P1;durP1;ratioP1;P2;durP2;ratioP2
3700;SDS011;1866;48.374;10.766;2023-04-06T00:00:10;98.53;;;8.40;;
3700;SDS011;1866;48.374;10.766;2023-04-06T00:02:38;96.18;;;7.38;;
3700;SDS011;1866;48.374;10.766;2023-04-06T00:05:05;102.90;;;7.90;;
3700;SDS011;1866;48.374;10.766;2023-04-06T00:07:33;103.05;;;8.75;;
3700;SDS011;1866;48.374;10.766;2023-04-06T00:10:02;95.45;;;7.40;;
3700;SDS011;1866;48.374;10.766;2023-04-06T00:12:29;107.13;;;7.63;;
3700;SDS011;1866;48.374;10.766;2023-04-06T00:14:56;99.63;;;8.40;;
3700;SDS011;1866;48.374;10.766;2023-04-06T00:17:23;97.47;;;8.40;;
3700;SDS011;1866;48.374;10.766;2023-04-06T00:19:50;94.85;;;7.47;;
3700;SDS011;1866;48.374;10.766;2023-04-06T00:22:16;102.65;;;8.35;;
3700;SDS011;1866;48.374;10.766;2023-04-06T00:24:43;95.68;;;7.57;;
3700;SDS011;1866;48.374;10.766;2023-04-06T00:27:12;97.15;;;8.43;;
3700;SDS011;1866;48.374;10.766;2023-04-06T00:29:39;96.57;;;8.45;;
3700;SDS011;1866;48.374;10.766;2023-04-06T00:32:06;99.68;;;7.88;;
3700;SDS011;1866;48.374;10.766;2023-04-06T00:34:33;98.07;;;8.95;;
3700;SDS011;1866;48.374;10.766;2023-04-06T00:36:59;103.93;;;8.30;;
3700;SDS011;1866;48.374;10.766;2023-04-06T00:39:26;96.82;;;8.55;;
3700;SDS011;1866;48.374;10.766;2023-04-06T00:41:53;95.72;;;7.65;;
3700;SDS011;1866;48.374;10.766;2023-04-06T00:44:23;104.43;;;8.15;;
3700;SDS011;1866;48.374;10.766;2023-04-06T00:46:50;95.82;;;7.55;;
3700;SDS011;1866;48.374;10.766;2023-04-06T00:49:17;95.18;;;7.55;;
3700;SDS011;1866;48.374;10.766;2023-04-06T00:51:44;96.03;;;7.78;;
3700;SDS011;1866;48.374;10.766;2023-04-06T00:54:11;99.75;;;7.95;;
3700;SDS011;1866;48.374;10.766;2023-04-06T00:56:38;100.20;;;8.27;;
3700;SDS011;1866;48.374;10.766;2023-04-06T00:59:05;97.55;;;8.25;;
3700;SDS011;1866;48.374;10.766;2023-04-06T01:01:33;97.63;;;8.45;;
3700;SDS011;1866;48.374;10.766;2023-04-06T01:04:00;95.72;;;7.70;;
3700;SDS011;1866;48.374;10.766;2023-04-06T01:06:29;96.35;;;8.13;;
3700;SDS011;1866;48.374;10.766;2023-04-06T01:08:55;97.35;;;8.00;;
3700;SDS011;1866;48.374;10.766;2023-04-06T01:11:22;94.93;;;7.40;;
3700;SDS011;1866;48.374;10.766;2023-04-06T01:13:49;97.18;;;7.70;;
3700;SDS011;1866;48.374;10.766;2023-04-06T01:16:16;95.82;;;8.30;;
3700;SDS011;1866;48.374;10.766;2023-04-06T01:18:44;96.82;;;8.35;;
3700;SDS011;1866;48.374;10.766;2023-04-06T01:21:11;96.32;;;8.32;;
3700;SDS011;1866;48.374;10.766;2023-04-06T01:23:43;94.88;;;7.35;;
3700;SDS011;1866;48.374;10.766;2023-04-06T01:26:10;98.03;;;7.65;;
3700;SDS011;1866;48.374;10.766;2023-04-06T01:28:37;96.72;;;8.18;;
3700;SDS011;1866;48.374;10.766;2023-04-06T01:31:05;97.93;;;8.07;;
3700;SDS011;1866;48.374;10.766;2023-04-06T01:33:32;96.10;;;8.00;;
3700;SDS011;1866;48.374;10.766;2023-04-06T01:35:59;97.25;;;8.35;;
3700;SDS011;1866;48.374;10.766;2023-04-06T01:38:26;94.28;;;7.00;;
3700;SDS011;1866;48.374;10.766;2023-04-06T01:40:54;94.38;;;7.70;;
3700;SDS011;1866;48.374;10.766;2023-04-06T01:43:21;95.82;;;7.85;;
3700;SDS011;1866;48.374;10.766;2023-04-06T01:45:48;94.53;;;7.32;;
3700;SDS011;1866;48.374;10.766;2023-04-06T01:48:16;95.03;;;7.70;;
3700;SDS011;1866;48.374;10.766;2023-04-06T01:50:43;95.72;;;8.07;;
3700;SDS011;1866;48.374;10.766;2023-04-06T01:53:09;93.88;;;7.00;;
3700;SDS011;1866;48.374;10.766;2023-04-06T01:55:36;95.95;;;7.65;;
3700;SDS011;1866;48.374;10.766;2023-04-06T01:58:05;96.63;;;8.63;;
3700;SDS011;1866;48.374;10.766;2023-04-06T02:00:32;95.65;;;8.00;;
3700;SDS011;1866;48.374;10.766;2023-04-06T02:02:58;94.07;;;7.55;;
3700;SDS011;1866;48.374;10.766;2023-04-06T02:05:25;95.97;;;8.25;;
3700;SDS011;1866;48.374;10.766;2023-04-06T02:07:52;94.15;;;7.28;;
3700;SDS011;1866;48.374;10.766;2023-04-06T02:10:19;93.68;;;7.40;;
3700;SDS011;1866;48.374;10.766;2023-04-06T02:12:46;96.45;;;7.70;;
3700;SDS011;1866;48.374;10.766;2023-04-06T02:15:15;98.53;;;8.40;;
3700;SDS011;1866;48.374;10.766;2023-04-06T02:17:42;93.82;;;7.50;;
3700;SDS011;1866;48.374;10.766;2023-04-06T02:20:09;95.32;;;7.82;;
3700;SDS011;1866;48.374;10.766;2023-04-06T02:22:37;94.63;;;7.20;;
3700;SDS011;1866;48.374;10.766;2023-04-06T02:25:05;97.72;;;7.60;;
3700;SDS011;1866;48.374;10.766;2023-04-06T02:27:32;95.78;;;7.50;;
3700;SDS011;1866;48.374;10.766;2023-04-06T02:29:59;94.70;;;7.50;;
3700;SDS011;1866;48.374;10.766;2023-04-06T02:32:27;95.78;;;7.95;;
3700;SDS011;1866;48.374;10.766;2023-04-06T02:34:54;93.32;;;7.30;;
3700;SDS011;1866;48.374;10.766;2023-04-06T02:37:21;93.72;;;7.28;;
3700;SDS011;1866;48.374;10.766;2023-04-06T02:39:49;94.28;;;7.78;;
3700;SDS011;1866;48.374;10.766;2023-04-06T02:42:16;93.93;;;7.47;;
3700;SDS011;1866;48.374;10.766;2023-04-06T02:44:43;94.70;;;8.10;;
3700;SDS011;1866;48.374;10.766;2023-04-06T02:47:10;95.75;;;8.50;;
3700;SDS011;1866;48.374;10.766;2023-04-06T02:49:38;95.20;;;8.02;;
3700;SDS011;1866;48.374;10.766;2023-04-06T02:52:05;95.55;;;8.27;;
3700;SDS011;1866;48.374;10.766;2023-04-06T02:54:32;96.45;;;7.80;;
3700;SDS011;1866;48.374;10.766;2023-04-06T02:56:58;93.68;;;7.22;;
3700;SDS011;1866;48.374;10.766;2023-04-06T02:59:25;94.80;;;7.72;;
3700;SDS011;1866;48.374;10.766;2023-04-06T03:01:52;95.03;;;8.00;;
3700;SDS011;1866;48.374;10.766;2023-04-06T03:04:19;97.95;;;7.55;;
3700;SDS011;1866;48.374;10.766;2023-04-06T03:06:49;94.93;;;7.65;;
3700;SDS011;1866;48.374;10.766;2023-04-06T03:09:16;94.25;;;7.20;;
3700;SDS011;1866;48.374;10.766;2023-04-06T03:11:43;94.88;;;7.78;;
3700;SDS011;1866;48.374;10.766;2023-04-06T03:14:11;96.85;;;9.02;;
3700;SDS011;1866;48.374;10.766;2023-04-06T03:16:37;94.28;;;7.80;;
3700;SDS011;1866;48.374;10.766;2023-04-06T03:19:04;94.20;;;7.75;;
3700;SDS011;1866;48.374;10.766;2023-04-06T03:21:31;94.63;;;7.55;;
3700;SDS011;1866;48.374;10.766;2023-04-06T03:24:00;93.63;;;7.70;;
3700;SDS011;1866;48.374;10.766;2023-04-06T03:26:26;96.10;;;8.57;;
3700;SDS011;1866;48.374;10.766;2023-04-06T03:28:53;95.60;;;7.75;;
3700;SDS011;1866;48.374;10.766;2023-04-06T03:31:20;95.60;;;8.82;;
3700;SDS011;1866;48.374;10.766;2023-04-06T03:33:47;94.55;;;7.25;;
3700;SDS011;1866;48.374;10.766;2023-04-06T03:36:14;96.30;;;9.20;;
3700;SDS011;1866;48.374;10.766;2023-04-06T03:38:41;94.53;;;7.88;;
3700;SDS011;1866;48.374;10.766;2023-04-06T03:41:09;99.00;;;8.43;;
3700;SDS011;1866;48.374;10.766;2023-04-06T03:43:36;96.82;;;8.48;;
3700;SDS011;1866;48.374;10.766;2023-04-06T03:46:03;95.35;;;7.50;;
3700;SDS011;1866;48.374;10.766;2023-04-06T03:48:30;96.05;;;8.70;;
3700;SDS011;1866;48.374;10.766;2023-04-06T03:50:57;94.15;;;7.05;;
3700;SDS011;1866;48.374;10.766;2023-04-06T03:53:24;95.35;;;7.65;;
3700;SDS011;1866;48.374;10.766;2023-04-06T03:55:50;94.53;;;7.95;;
3700;SDS011;1866;48.374;10.766;2023-04-06T03:58:19;96.18;;;8.05;;
3700;SDS011;1866;48.374;10.766;2023-04-06T04:00:45;95.45;;;8.48;;
3700;SDS011;1866;48.374;10.766;2023-04-06T04:03:12;96.15;;;8.27;;
3700;SDS011;1866;48.374;10.766;2023-04-06T04:05:40;96.88;;;8.50;;
3700;SDS011;1866;48.374;10.766;2023-04-06T04:08:06;104.55;;;8.10;;
3700;SDS011;1866;48.374;10.766;2023-04-06T04:10:34;99.28;;;8.40;;
3700;SDS011;1866;48.374;10.766;2023-04-06T04:13:01;95.95;;;8.25;;
3700;SDS011;1866;48.374;10.766;2023-04-06T04:15:29;94.95;;;7.88;;
3700;SDS011;1866;48.374;10.766;2023-04-06T04:17:56;94.22;;;7.97;;
3700;SDS011;1866;48.374;10.766;2023-04-06T04:20:23;94.43;;;8.43;;
3700;SDS011;1866;48.374;10.766;2023-04-06T04:22:50;96.80;;;8.32;;
3700;SDS011;1866;48.374;10.766;2023-04-06T04:25:17;94.28;;;7.90;;
3700;SDS011;1866;48.374;10.766;2023-04-06T04:27:44;96.70;;;8.35;;
3700;SDS011;1866;48.374;10.766;2023-04-06T04:30:10;97.13;;;9.15;;
3700;SDS011;1866;48.374;10.766;2023-04-06T04:32:40;97.18;;;8.60;;
3700;SDS011;1866;48.374;10.766;2023-04-06T04:35:07;96.43;;;8.95;;
3700;SDS011;1866;48.374;10.766;2023-04-06T04:37:35;96.45;;;8.05;;
3700;SDS011;1866;48.374;10.766;2023-04-06T04:40:01;98.68;;;9.70;;
3700;SDS011;1866;48.374;10.766;2023-04-06T04:42:28;97.05;;;8.70;;
3700;SDS011;1866;48.374;10.766;2023-04-06T04:44:56;96.78;;;8.15;;
3700;SDS011;1866;48.374;10.766;2023-04-06T04:47:22;97.90;;;9.10;;
3700;SDS011;1866;48.374;10.766;2023-04-06T04:49:51;94.40;;;7.97;;
3700;SDS011;1866;48.374;10.766;2023-04-06T04:52:18;93.95;;;7.40;;
3700;SDS011;1866;48.374;10.766;2023-04-06T04:54:44;95.10;;;8.15;;
3700;SDS011;1866;48.374;10.766;2023-04-06T04:57:12;93.70;;;7.60;;
3700;SDS011;1866;48.374;10.766;2023-04-06T04:59:39;96.25;;;9.07;;
3700;SDS011;1866;48.374;10.766;2023-04-06T05:02:05;96.93;;;8.70;;
3700;SDS011;1866;48.374;10.766;2023-04-06T05:04:32;94.38;;;7.78;;
3700;SDS011;1866;48.374;10.766;2023-04-06T05:07:04;97.13;;;8.30;;
3700;SDS011;1866;48.374;10.766;2023-04-06T05:09:32;96.22;;;8.85;;
3700;SDS011;1866;48.374;10.766;2023-04-06T05:11:59;95.88;;;9.23;;
3700;SDS011;1866;48.374;10.766;2023-04-06T05:14:26;95.80;;;9.38;;
3700;SDS011;1866;48.374;10.766;2023-04-06T05:16:53;96.95;;;9.48;;
3700;SDS011;1866;48.374;10.766;2023-04-06T05:19:20;103.10;;;9.05;;
3700;SDS011;1866;48.374;10.766;2023-04-06T05:21:47;100.90;;;10.55;;
3700;SDS011;1866;48.374;10.766;2023-04-06T05:24:15;105.97;;;11.52;;
3700;SDS011;1866;48.374;10.766;2023-04-06T05:26:43;99.72;;;8.38;;
3700;SDS011;1866;48.374;10.766;2023-04-06T05:29:10;100.88;;;8.93;;
3700;SDS011;1866;48.374;10.766;2023-04-06T05:31:37;103.80;;;9.23;;
3700;SDS011;1866;48.374;10.766;2023-04-06T05:34:04;100.32;;;8.88;;
3700;SDS011;1866;48.374;10.766;2023-04-06T05:36:31;106.47;;;9.50;;
3700;SDS011;1866;48.374;10.766;2023-04-06T05:38:58;104.90;;;8.98;;
3700;SDS011;1866;48.374;10.766;2023-04-06T05:41:26;101.95;;;9.25;;
3700;SDS011;1866;48.374;10.766;2023-04-06T05:43:53;104.00;;;9.55;;
3700;SDS011;1866;48.374;10.766;2023-04-06T05:46:20;102.50;;;8.65;;
3700;SDS011;1866;48.374;10.766;2023-04-06T05:48:47;103.25;;;9.65;;
3700;SDS011;1866;48.374;10.766;2023-04-06T05:51:14;101.75;;;8.70;;
3700;SDS011;1866;48.374;10.766;2023-04-06T05:53:41;102.78;;;8.65;;
3700;SDS011;1866;48.374;10.766;2023-04-06T05:56:08;99.88;;;8.07;;
3700;SDS011;1866;48.374;10.766;2023-04-06T05:58:36;98.90;;;8.38;;
3700;SDS011;1866;48.374;10.766;2023-04-06T06:01:03;103.97;;;8.70;;
3700;SDS011;1866;48.374;10.766;2023-04-06T06:03:30;106.63;;;9.70;;
3700;SDS011;1866;48.374;10.766;2023-04-06T06:06:00;99.55;;;8.90;;
3700;SDS011;1866;48.374;10.766;2023-04-06T06:08:27;112.18;;;9.80;;
3700;SDS011;1866;48.374;10.766;2023-04-06T06:10:54;98.57;;;8.70;;
3700;SDS011;1866;48.374;10.766;2023-04-06T06:13:21;101.13;;;9.30;;
3700;SDS011;1866;48.374;10.766;2023-04-06T06:15:50;98.88;;;8.45;;
3700;SDS011;1866;48.374;10.766;2023-04-06T06:18:17;101.93;;;9.80;;
3700;SDS011;1866;48.374;10.766;2023-04-06T06:20:44;100.80;;;9.13;;
3700;SDS011;1866;48.374;10.766;2023-04-06T06:23:11;101.93;;;9.65;;
3700;SDS011;1866;48.374;10.766;2023-04-06T06:25:37;105.47;;;10.15;;
3700;SDS011;1866;48.374;10.766;2023-04-06T06:28:05;101.15;;;9.02;;
3700;SDS011;1866;48.374;10.766;2023-04-06T06:30:31;99.75;;;8.50;;
3700;SDS011;1866;48.374;10.766;2023-04-06T06:33:00;102.72;;;8.98;;
3700;SDS011;1866;48.374;10.766;2023-04-06T06:35:27;100.80;;;9.63;;
3700;SDS011;1866;48.374;10.766;2023-04-06T06:37:53;103.80;;;8.73;;
3700;SDS011;1866;48.374;10.766;2023-04-06T06:40:20;102.50;;;8.48;;
3700;SDS011;1866;48.374;10.766;2023-04-06T06:42:49;100.80;;;8.30;;
3700;SDS011;1866;48.374;10.766;2023-04-06T06:45:16;100.97;;;8.65;;
3700;SDS011;1866;48.374;10.766;2023-04-06T06:47:43;100.82;;;8.43;;
3700;SDS011;1866;48.374;10.766;2023-04-06T06:50:12;102.65;;;8.82;;
3700;SDS011;1866;48.374;10.766;2023-04-06T06:52:39;99.47;;;9.43;;
3700;SDS011;1866;48.374;10.766;2023-04-06T06:55:07;103.40;;;9.27;;
3700;SDS011;1866;48.374;10.766;2023-04-06T06:57:35;102.53;;;9.02;;
3700;SDS011;1866;48.374;10.766;2023-04-06T07:00:03;101.63;;;8.43;;
3700;SDS011;1866;48.374;10.766;2023-04-06T07:02:33;103.00;;;8.73;;
3700;SDS011;1866;48.374;10.766;2023-04-06T07:05:01;105.80;;;8.27;;
3700;SDS011;1866;48.374;10.766;2023-04-06T07:07:29;106.95;;;9.30;;
3700;SDS011;1866;48.374;10.766;2023-04-06T07:09:58;100.07;;;8.52;;
3700;SDS011;1866;48.374;10.766;2023-04-06T07:12:25;104.38;;;9.40;;
3700;SDS011;1866;48.374;10.766;2023-04-06T07:14:53;102.70;;;9.07;;
3700;SDS011;1866;48.374;10.766;2023-04-06T07:17:20;103.32;;;9.88;;
3700;SDS011;1866;48.374;10.766;2023-04-06T07:19:47;101.90;;;9.07;;
3700;SDS011;1866;48.374;10.766;2023-04-06T07:22:13;101.47;;;9.25;;
3700;SDS011;1866;48.374;10.766;2023-04-06T07:24:42;102.25;;;8.65;;
3700;SDS011;1866;48.374;10.766;2023-04-06T07:27:09;104.82;;;9.90;;
3700;SDS011;1866;48.374;10.766;2023-04-06T07:29:36;103.95;;;8.95;;
3700;SDS011;1866;48.374;10.766;2023-04-06T07:32:02;110.47;;;8.95;;
3700;SDS011;1866;48.374;10.766;2023-04-06T07:34:30;100.28;;;8.52;;
3700;SDS011;1866;48.374;10.766;2023-04-06T07:36:57;102.38;;;8.52;;
3700;SDS011;1866;48.374;10.766;2023-04-06T07:39:24;100.80;;;8.50;;
3700;SDS011;1866;48.374;10.766;2023-04-06T07:41:53;114.47;;;9.30;;
3700;SDS011;1866;48.374;10.766;2023-04-06T07:44:20;102.25;;;8.88;;
3700;SDS011;1866;48.374;10.766;2023-04-06T07:46:47;102.55;;;8.98;;
3700;SDS011;1866;48.374;10.766;2023-04-06T07:49:13;102.80;;;8.10;;
3700;SDS011;1866;48.374;10.766;2023-04-06T07:51:40;104.87;;;9.20;;
3700;SDS011;1866;48.374;10.766;2023-04-06T07:54:07;102.17;;;8.83;;
3700;SDS011;1866;48.374;10.766;2023-04-06T07:56:34;107.83;;;10.43;;
3700;SDS011;1866;48.374;10.766;2023-04-06T07:59:02;102.30;;;8.10;;
3700;SDS011;1866;48.374;10.766;2023-04-06T08:01:29;109.03;;;10.37;;
3700;SDS011;1866;48.374;10.766;2023-04-06T08:03:56;106.70;;;8.77;;
3700;SDS011;1866;48.374;10.766;2023-04-06T08:06:24;104.17;;;8.73;;
3700;SDS011;1866;48.374;10.766;2023-04-06T08:08:51;107.97;;;9.70;;
3700;SDS011;1866;48.374;10.766;2023-04-06T08:11:18;105.93;;;10.00;;
3700;SDS011;1866;48.374;10.766;2023-04-06T08:13:45;104.80;;;9.63;;
3700;SDS011;1866;48.374;10.766;2023-04-06T08:16:13;109.13;;;10.37;;
3700;SDS011;1866;48.374;10.766;2023-04-06T08:18:40;105.83;;;9.00;;
3700;SDS011;1866;48.374;10.766;2023-04-06T08:21:07;106.67;;;8.97;;
3700;SDS011;1866;48.374;10.766;2023-04-06T08:23:34;110.60;;;10.73;;
3700;SDS011;1866;48.374;10.766;2023-04-06T08:26:00;104.07;;;9.90;;
3700;SDS011;1866;48.374;10.766;2023-04-06T08:28:27;120.07;;;9.03;;
3700;SDS011;1866;48.374;10.766;2023-04-06T08:30:54;103.10;;;8.70;;
3700;SDS011;1866;48.374;10.766;2023-04-06T08:33:22;107.17;;;8.43;;
3700;SDS011;1866;48.374;10.766;2023-04-06T08:35:49;103.73;;;8.00;;
3700;SDS011;1866;48.374;10.766;2023-04-06T08:38:16;104.00;;;8.80;;
3700;SDS011;1866;48.374;10.766;2023-04-06T08:40:43;104.50;;;8.73;;
3700;SDS011;1866;48.374;10.766;2023-04-06T08:43:13;104.07;;;8.53;;
3700;SDS011;1866;48.374;10.766;2023-04-06T08:45:41;103.20;;;8.07;;
3700;SDS011;1866;48.374;10.766;2023-04-06T08:48:08;102.60;;;7.70;;
3700;SDS011;1866;48.374;10.766;2023-04-06T08:50:39;107.47;;;9.10;;
3700;SDS011;1866;48.374;10.766;2023-04-06T08:53:06;106.50;;;8.97;;
3700;SDS011;1866;48.374;10.766;2023-04-06T08:55:34;105.47;;;8.50;;
3700;SDS011;1866;48.374;10.766;2023-04-06T08:58:02;104.80;;;7.60;;
3700;SDS011;1866;48.374;10.766;2023-04-06T09:00:32;104.30;;;8.37;;
3700;SDS011;1866;48.374;10.766;2023-04-06T09:03:02;103.70;;;7.90;;
3700;SDS011;1866;48.374;10.766;2023-04-06T09:05:31;113.30;;;8.70;;
3700;SDS011;1866;48.374;10.766;2023-04-06T09:07:59;104.80;;;9.00;;
3700;SDS011;1866;48.374;10.766;2023-04-06T09:10:26;106.63;;;8.57;;
3700;SDS011;1866;48.374;10.766;2023-04-06T09:13:02;107.30;;;9.43;;
3700;SDS011;1866;48.374;10.766;2023-04-06T09:15:30;106.10;;;8.10;;
3700;SDS011;1866;48.374;10.766;2023-04-06T09:17:57;106.70;;;9.30;;
3700;SDS011;1866;48.374;10.766;2023-04-06T09:20:24;109.13;;;8.63;;
3700;SDS011;1866;48.374;10.766;2023-04-06T09:22:53;106.37;;;8.83;;
3700;SDS011;1866;48.374;10.766;2023-04-06T09:25:22;108.77;;;8.47;;
3700;SDS011;1866;48.374;10.766;2023-04-06T09:28:02;106.63;;;8.53;;
3700;SDS011;1866;48.374;10.766;2023-04-06T09:30:31;106.37;;;8.87;;
3700;SDS011;1866;48.374;10.766;2023-04-06T09:32:59;114.27;;;10.47;;
3700;SDS011;1866;48.374;10.766;2023-04-06T09:35:27;109.77;;;10.00;;
3700;SDS011;1866;48.374;10.766;2023-04-06T09:37:56;104.97;;;8.53;;
3700;SDS011;1866;48.374;10.766;2023-04-06T09:40:24;105.17;;;8.93;;
3700;SDS011;1866;48.374;10.766;2023-04-06T09:42:51;121.50;;;14.30;;
3700;SDS011;1866;48.374;10.766;2023-04-06T09:45:19;106.30;;;9.30;;
3700;SDS011;1866;48.374;10.766;2023-04-06T09:47:46;106.87;;;9.40;;
3700;SDS011;1866;48.374;10.766;2023-04-06T09:50:14;110.50;;;8.90;;
3700;SDS011;1866;48.374;10.766;2023-04-06T09:52:43;105.43;;;8.47;;
3700;SDS011;1866;48.374;10.766;2023-04-06T09:55:16;109.47;;;9.77;;
3700;SDS011;1866;48.374;10.766;2023-04-06T09:57:49;103.87;;;7.70;;
3700;SDS011;1866;48.374;10.766;2023-04-06T10:00:21;107.30;;;8.83;;
3700;SDS011;1866;48.374;10.766;2023-04-06T10:02:50;106.70;;;8.17;;
3700;SDS011;1866;48.374;10.766;2023-04-06T10:05:22;104.87;;;8.77;;
3700;SDS011;1866;48.374;10.766;2023-04-06T10:07:59;104.20;;;8.20;;
3700;SDS011;1866;48.374;10.766;2023-04-06T10:10:31;106.17;;;8.50;;
3700;SDS011;1866;48.374;10.766;2023-04-06T10:12:59;105.00;;;8.30;;
3700;SDS011;1866;48.374;10.766;2023-04-06T10:15:27;109.20;;;8.67;;
3700;SDS011;1866;48.374;10.766;2023-04-06T10:17:54;105.07;;;8.20;;
3700;SDS011;1866;48.374;10.766;2023-04-06T10:20:23;108.33;;;9.10;;
3700;SDS011;1866;48.374;10.766;2023-04-06T10:22:55;117.33;;;10.70;;
3700;SDS011;1866;48.374;10.766;2023-04-06T10:25:26;105.10;;;8.47;;
3700;SDS011;1866;48.374;10.766;2023-04-06T10:28:00;107.00;;;9.10;;
3700;SDS011;1866;48.374;10.766;2023-04-06T10:30:27;105.70;;;8.80;;
3700;SDS011;1866;48.374;10.766;2023-04-06T10:32:54;105.43;;;9.10;;
3700;SDS011;1866;48.374;10.766;2023-04-06T10:35:21;107.77;;;8.53;;
3700;SDS011;1866;48.374;10.766;2023-04-06T10:37:52;104.67;;;7.70;;
3700;SDS011;1866;48.374;10.766;2023-04-06T10:40:28;104.53;;;7.60;;
3700;SDS011;1866;48.374;10.766;2023-04-06T10:43:06;105.30;;;8.03;;
3700;SDS011;1866;48.374;10.766;2023-04-06T10:45:35;104.23;;;8.00;;
3700;SDS011;1866;48.374;10.766;2023-04-06T10:48:12;104.47;;;7.10;;
3700;SDS011;1866;48.374;10.766;2023-04-06T10:50:40;102.67;;;6.97;;
3700;SDS011;1866;48.374;10.766;2023-04-06T10:53:07;102.77;;;7.80;;
3700;SDS011;1866;48.374;10.766;2023-04-06T10:55:34;109.07;;;8.47;;
3700;SDS011;1866;48.374;10.766;2023-04-06T10:58:07;102.77;;;7.53;;
3700;SDS011;1866;48.374;10.766;2023-04-06T11:00:34;106.30;;;8.30;;
3700;SDS011;1866;48.374;10.766;2023-04-06T11:03:09;101.97;;;7.07;;
3700;SDS011;1866;48.374;10.766;2023-04-06T11:05:36;105.47;;;7.77;;
3700;SDS011;1866;48.374;10.766;2023-04-06T11:08:03;104.90;;;7.57;;
3700;SDS011;1866;48.374;10.766;2023-04-06T11:10:30;103.23;;;7.27;;
3700;SDS011;1866;48.374;10.766;2023-04-06T11:12:57;103.67;;;7.40;;
3700;SDS011;1866;48.374;10.766;2023-04-06T11:15:26;105.50;;;8.30;;
3700;SDS011;1866;48.374;10.766;2023-04-06T11:18:03;102.80;;;6.57;;
3700;SDS011;1866;48.374;10.766;2023-04-06T11:20:30;105.70;;;8.43;;
3700;SDS011;1866;48.374;10.766;2023-04-06T11:22:57;102.20;;;7.33;;
3700;SDS011;1866;48.374;10.766;2023-04-06T11:25:24;102.63;;;6.90;;
3700;SDS011;1866;48.374;10.766;2023-04-06T11:27:52;103.30;;;7.03;;
3700;SDS011;1866;48.374;10.766;2023-04-06T11:30:19;105.67;;;9.57;;
3700;SDS011;1866;48.374;10.766;2023-04-06T11:32:48;103.67;;;7.10;;
3700;SDS011;1866;48.374;10.766;2023-04-06T11:35:24;103.43;;;7.27;;
3700;SDS011;1866;48.374;10.766;2023-04-06T11:37:51;103.27;;;7.57;;
3700;SDS011;1866;48.374;10.766;2023-04-06T11:40:20;104.27;;;7.00;;
3700;SDS011;1866;48.374;10.766;2023-04-06T11:42:51;104.17;;;8.10;;
3700;SDS011;1866;48.374;10.766;2023-04-06T11:45:19;103.03;;;7.00;;
3700;SDS011;1866;48.374;10.766;2023-04-06T11:47:54;103.10;;;6.70;;
3700;SDS011;1866;48.374;10.766;2023-04-06T11:50:45;102.27;;;7.17;;
3700;SDS011;1866;48.374;10.766;2023-04-06T11:53:12;105.47;;;8.10;;
3700;SDS011;1866;48.374;10.766;2023-04-06T11:55:39;104.13;;;7.00;;
3700;SDS011;1866;48.374;10.766;2023-04-06T11:58:10;102.77;;;6.90;;
3700;SDS011;1866;48.374;10.766;2023-04-06T12:00:37;102.00;;;6.93;;
3700;SDS011;1866;48.374;10.766;2023-04-06T12:03:05;104.60;;;7.40;;
3700;SDS011;1866;48.374;10.766;2023-04-06T12:05:33;102.20;;;7.20;;
3700;SDS011;1866;48.374;10.766;2023-04-06T12:08:00;103.87;;;7.40;;
3700;SDS011;1866;48.374;10.766;2023-04-06T12:10:27;104.70;;;7.47;;
3700;SDS011;1866;48.374;10.766;2023-04-06T12:12:53;105.47;;;7.20;;
3700;SDS011;1866;48.374;10.766;2023-04-06T12:15:20;103.87;;;7.10;;
3700;SDS011;1866;48.374;10.766;2023-04-06T12:17:47;102.97;;;8.10;;
3700;SDS011;1866;48.374;10.766;2023-04-06T12:20:16;104.23;;;6.90;;
3700;SDS011;1866;48.374;10.766;2023-04-06T12:22:43;102.67;;;7.20;;
3700;SDS011;1866;48.374;10.766;2023-04-06T12:25:10;103.20;;;6.93;;
3700;SDS011;1866;48.374;10.766;2023-04-06T12:27:37;103.03;;;7.30;;
3700;SDS011;1866;48.374;10.766;2023-04-06T12:30:05;103.23;;;7.90;;
3700;SDS011;1866;48.374;10.766;2023-04-06T12:32:33;105.27;;;7.90;;
3700;SDS011;1866;48.374;10.766;2023-04-06T12:35:00;119.50;;;7.40;;
3700;SDS011;1866;48.374;10.766;2023-04-06T12:37:28;104.20;;;6.93;;
3700;SDS011;1866;48.374;10.766;2023-04-06T12:39:55;106.70;;;7.10;;
3700;SDS011;1866;48.374;10.766;2023-04-06T12:42:22;102.80;;;7.00;;
3700;SDS011;1866;48.374;10.766;2023-04-06T12:44:49;101.40;;;6.43;;
3700;SDS011;1866;48.374;10.766;2023-04-06T12:47:15;102.50;;;7.40;;
3700;SDS011;1866;48.374;10.766;2023-04-06T12:49:43;101.47;;;7.00;;
3700;SDS011;1866;48.374;10.766;2023-04-06T12:52:10;108.20;;;7.20;;
3700;SDS011;1866;48.374;10.766;2023-04-06T12:54:38;103.57;;;7.00;;
3700;SDS011;1866;48.374;10.766;2023-04-06T12:57:05;102.10;;;6.50;;
3700;SDS011;1866;48.374;10.766;2023-04-06T12:59:32;101.87;;;6.70;;
3700;SDS011;1866;48.374;10.766;2023-04-06T13:02:00;103.10;;;6.93;;
3700;SDS011;1866;48.374;10.766;2023-04-06T13:04:27;102.30;;;7.00;;
3700;SDS011;1866;48.374;10.766;2023-04-06T13:06:54;101.10;;;6.53;;
3700;SDS011;1866;48.374;10.766;2023-04-06T13:09:21;103.80;;;7.70;;
3700;SDS011;1866;48.374;10.766;2023-04-06T13:11:49;102.77;;;6.87;;
3700;SDS011;1866;48.374;10.766;2023-04-06T13:14:16;103.57;;;6.80;;
3700;SDS011;1866;48.374;10.766;2023-04-06T13:16:42;102.70;;;6.57;;
3700;SDS011;1866;48.374;10.766;2023-04-06T13:19:09;103.90;;;7.37;;
3700;SDS011;1866;48.374;10.766;2023-04-06T13:21:36;105.10;;;6.47;;
3700;SDS011;1866;48.374;10.766;2023-04-06T13:24:03;105.27;;;7.47;;
3700;SDS011;1866;48.374;10.766;2023-04-06T13:26:31;104.27;;;6.30;;
3700;SDS011;1866;48.374;10.766;2023-04-06T13:28:59;104.50;;;7.47;;
3700;SDS011;1866;48.374;10.766;2023-04-06T13:31:28;105.57;;;6.87;;
3700;SDS011;1866;48.374;10.766;2023-04-06T13:33:56;105.00;;;7.30;;
3700;SDS011;1866;48.374;10.766;2023-04-06T13:36:24;108.97;;;7.80;;
3700;SDS011;1866;48.374;10.766;2023-04-06T13:38:52;105.00;;;7.43;;
3700;SDS011;1866;48.374;10.766;2023-04-06T13:41:20;103.87;;;6.70;;
3700;SDS011;1866;48.374;10.766;2023-04-06T13:43:47;104.60;;;7.97;;
3700;SDS011;1866;48.374;10.766;2023-04-06T13:46:16;102.57;;;6.97;;
3700;SDS011;1866;48.374;10.766;2023-04-06T13:48:43;103.80;;;7.20;;
3700;SDS011;1866;48.374;10.766;2023-04-06T13:51:12;104.67;;;6.80;;
3700;SDS011;1866;48.374;10.766;2023-04-06T13:53:40;103.57;;;7.07;;
3700;SDS011;1866;48.374;10.766;2023-04-06T13:56:07;102.47;;;6.60;;
3700;SDS011;1866;48.374;10.766;2023-04-06T13:58:34;106.37;;;7.67;;
3700;SDS011;1866;48.374;10.766;2023-04-06T14:01:02;102.40;;;6.17;;
3700;SDS011;1866;48.374;10.766;2023-04-06T14:03:31;102.60;;;6.97;;
3700;SDS011;1866;48.374;10.766;2023-04-06T14:05:58;104.87;;;6.70;;
3700;SDS011;1866;48.374;10.766;2023-04-06T14:08:25;102.10;;;6.53;;
3700;SDS011;1866;48.374;10.766;2023-04-06T14:10:52;103.40;;;7.50;;
3700;SDS011;1866;48.374;10.766;2023-04-06T14:13:19;101.80;;;6.53;;
3700;SDS011;1866;48.374;10.766;2023-04-06T14:15:46;102.17;;;6.73;;
3700;SDS011;1866;48.374;10.766;2023-04-06T14:18:12;104.17;;;7.20;;
3700;SDS011;1866;48.374;10.766;2023-04-06T14:20:41;106.83;;;7.10;;
3700;SDS011;1866;48.374;10.766;2023-04-06T14:23:08;103.00;;;6.50;;
3700;SDS011;1866;48.374;10.766;2023-04-06T14:25:36;102.13;;;7.23;;
3700;SDS011;1866;48.374;10.766;2023-04-06T14:28:02;105.07;;;7.07;;
3700;SDS011;1866;48.374;10.766;2023-04-06T14:30:29;103.60;;;7.23;;
3700;SDS011;1866;48.374;10.766;2023-04-06T14:32:56;101.80;;;6.90;;
3700;SDS011;1866;48.374;10.766;2023-04-06T14:35:24;105.07;;;7.30;;
3700;SDS011;1866;48.374;10.766;2023-04-06T14:37:54;100.80;;;6.50;;
3700;SDS011;1866;48.374;10.766;2023-04-06T14:40:21;104.27;;;7.30;;